Terminal Aerodrome Forecast
Issued by NWS El Paso, TX

Home | Current Version | Previous Version | Text Only | Print | Product List | Glossary On
Versions: 1 2 3 4 5 6 7 8 9 10 11 12 13 14 15 16
000
FTUS44 KEPZ 281139
TAFELP
TAF
KELP 281139Z 2812/2912 22011KT P6SM SCT090 BKN200
     FM281800 19005KT P6SM BKN250
     FM290000 13009KT P6SM VCTS BKN050CB BKN250=

USA.gov is the U.S. government's official web portal to all federal, state and local government web resources and services.